createdAt,value
2024-04-18T00:01:15.571Z,1.15
2024-04-18T00:03:42.413Z,0.82
2024-04-18T00:06:09.181Z,0.75
2024-04-18T00:08:35.778Z,1.02
2024-04-18T00:11:02.409Z,1.33
2024-04-18T00:13:28.984Z,1.20
2024-04-18T00:15:55.639Z,1.20
2024-04-18T00:18:22.364Z,1.10
2024-04-18T00:20:49.790Z,0.73
2024-04-18T00:23:16.409Z,0.82
2024-04-18T00:25:43.044Z,0.68
2024-04-18T00:28:09.647Z,1.40
2024-04-18T00:30:36.282Z,0.88
2024-04-18T00:33:03.093Z,1.35
2024-04-18T00:35:31.144Z,1.23
2024-04-18T00:37:59.141Z,0.70
2024-04-18T00:40:26.553Z,0.73
2024-04-18T00:42:55.374Z,0.63
2024-04-18T00:45:23.031Z,1.30
2024-04-18T00:47:50.155Z,0.93
2024-04-18T00:50:19.436Z,1.25
2024-04-18T00:52:47.052Z,1.60
2024-04-18T00:55:16.286Z,1.00
2024-04-18T00:57:42.994Z,1.20
2024-04-18T01:00:11.435Z,1.10
2024-04-18T01:02:38.202Z,1.13
2024-04-18T01:05:05.035Z,1.45
2024-04-18T01:07:32.034Z,0.80
2024-04-18T01:09:58.630Z,1.35
2024-04-18T01:12:25.247Z,1.00
2024-04-18T01:14:51.845Z,0.75
2024-04-18T01:17:18.756Z,1.00
2024-04-18T01:19:45.759Z,1.10
2024-04-18T01:22:12.580Z,1.13
2024-04-18T01:24:39.466Z,1.20
2024-04-18T01:27:06.095Z,1.33
2024-04-18T01:29:34.925Z,1.02
2024-04-18T01:32:03.872Z,1.77
2024-04-18T01:34:31.906Z,1.00
2024-04-18T01:36:58.698Z,1.63
2024-04-18T01:39:26.594Z,1.70
2024-04-18T01:41:53.463Z,1.30
2024-04-18T01:44:21.170Z,1.05
2024-04-18T01:46:50.005Z,1.08
2024-04-18T01:49:16.660Z,1.65
2024-04-18T01:51:45.320Z,1.45
2024-04-18T01:54:15.640Z,1.60
2024-04-18T01:56:44.255Z,1.15
2024-04-18T01:59:12.851Z,1.33
2024-04-18T02:01:39.820Z,1.48
2024-04-18T02:04:06.728Z,2.15
2024-04-18T02:06:33.925Z,1.80
2024-04-18T02:09:01.401Z,2.72
2024-04-18T02:11:28.007Z,1.90
2024-04-18T02:13:54.580Z,1.27
2024-04-18T02:16:21.219Z,2.40
2024-04-18T02:18:48.252Z,2.22
2024-04-18T02:21:15.405Z,1.30
2024-04-18T02:23:42.032Z,3.30
2024-04-18T02:26:16.886Z,1.80
2024-04-18T02:28:43.520Z,1.40
2024-04-18T02:31:10.166Z,1.40
2024-04-18T02:33:36.907Z,2.25
2024-04-18T02:36:03.667Z,2.53
2024-04-18T02:38:32.811Z,1.77
2024-04-18T02:41:12.054Z,1.65
2024-04-18T02:43:38.762Z,2.35
2024-04-18T02:46:07.141Z,2.28
2024-04-18T02:48:35.246Z,1.13
2024-04-18T02:51:02.242Z,2.20
2024-04-18T02:53:30.770Z,2.30
2024-04-18T02:55:57.378Z,1.75
2024-04-18T02:58:35.576Z,1.80
2024-04-18T03:01:05.314Z,1.48
2024-04-18T03:03:32.109Z,1.75
2024-04-18T03:06:03.484Z,1.33
2024-04-18T03:08:31.815Z,2.00
2024-04-18T03:10:58.432Z,1.58
2024-04-18T03:13:28.268Z,1.50
2024-04-18T03:15:54.900Z,1.70
2024-04-18T03:18:21.921Z,1.45
2024-04-18T03:20:53.640Z,2.05
2024-04-18T03:23:20.228Z,2.08
2024-04-18T03:25:49.303Z,2.25
2024-04-18T03:28:15.988Z,2.15
2024-04-18T03:30:43.972Z,2.03
2024-04-18T03:33:10.793Z,2.08
2024-04-18T03:35:43.386Z,2.60
2024-04-18T03:38:10.106Z,2.30
2024-04-18T03:40:36.848Z,2.28
2024-04-18T03:43:03.907Z,2.67
2024-04-18T03:45:33.345Z,2.47
2024-04-18T03:48:00.092Z,1.60
2024-04-18T03:50:26.922Z,2.03
2024-04-18T03:52:53.497Z,1.80
2024-04-18T03:55:21.202Z,1.63
2024-04-18T03:57:47.897Z,1.48
2024-04-18T04:00:15.457Z,2.03
2024-04-18T04:02:42.954Z,2.25
2024-04-18T04:05:09.907Z,2.20
2024-04-18T04:07:39.089Z,2.08
2024-04-18T04:10:05.950Z,2.05
2024-04-18T04:12:32.630Z,1.98
2024-04-18T04:15:01.841Z,2.53
2024-04-18T04:17:28.487Z,3.22
2024-04-18T04:19:55.308Z,1.83
2024-04-18T04:22:22.935Z,2.60
2024-04-18T04:24:50.714Z,2.50
2024-04-18T04:27:18.479Z,2.05
2024-04-18T04:29:45.208Z,2.17
2024-04-18T04:32:22.164Z,3.00
2024-04-18T04:34:51.115Z,1.83
2024-04-18T04:37:19.782Z,1.83
2024-04-18T04:39:49.598Z,2.08
2024-04-18T04:42:16.497Z,2.38
2024-04-18T04:44:43.659Z,2.38
2024-04-18T04:47:10.735Z,2.70
2024-04-18T04:49:37.610Z,1.83
2024-04-18T04:52:05.927Z,3.42
2024-04-18T04:54:32.589Z,2.10
2024-04-18T04:56:59.597Z,2.97
2024-04-18T04:59:26.850Z,2.83
2024-04-18T05:01:55.725Z,2.97
2024-04-18T05:04:22.420Z,2.33
2024-04-18T05:06:49.120Z,2.45
2024-04-18T05:09:18.033Z,2.40
2024-04-18T05:11:44.866Z,2.92
2024-04-18T05:14:11.491Z,2.20
2024-04-18T05:16:38.324Z,3.05
2024-04-18T05:19:06.409Z,2.38
2024-04-18T05:21:33.964Z,2.35
2024-04-18T05:24:00.726Z,2.00
2024-04-18T05:26:33.340Z,3.15
2024-04-18T05:29:19.691Z,1.92
2024-04-18T05:31:48.369Z,2.08
2024-04-18T05:34:15.012Z,2.00
2024-04-18T05:36:41.617Z,2.53
2024-04-18T05:39:10.732Z,2.15
2024-04-18T05:41:41.500Z,3.75
2024-04-18T05:44:08.618Z,2.53
2024-04-18T05:46:35.565Z,2.78
2024-04-18T05:49:02.968Z,2.42
2024-04-18T05:51:33.429Z,3.08
2024-04-18T05:54:00.179Z,3.13
2024-04-18T05:56:26.806Z,2.92
2024-04-18T05:58:55.200Z,3.03
2024-04-18T06:01:22.188Z,3.70
2024-04-18T06:03:52.042Z,3.25
2024-04-18T06:06:19.020Z,2.50
2024-04-18T06:08:46.049Z,2.13
2024-04-18T06:11:12.671Z,2.42
2024-04-18T06:13:41.852Z,1.95
2024-04-18T06:16:08.575Z,3.05
2024-04-18T06:18:36.089Z,2.13
2024-04-18T06:21:03.959Z,2.00
2024-04-18T06:23:30.589Z,1.80
2024-04-18T06:25:58.335Z,1.60
2024-04-18T06:28:25.775Z,1.92
2024-04-18T06:30:53.229Z,1.73
2024-04-18T06:33:20.068Z,1.88
2024-04-18T06:35:46.680Z,1.45
2024-04-18T06:38:13.389Z,1.33
2024-04-18T06:40:41.164Z,1.30
2024-04-18T06:43:08.204Z,1.33
2024-04-18T06:45:35.702Z,1.30
2024-04-18T06:48:05.929Z,1.45
2024-04-18T06:50:32.808Z,1.65
2024-04-18T06:52:59.414Z,1.40
2024-04-18T06:55:26.317Z,1.08
2024-04-18T06:57:53.097Z,0.95
2024-04-18T07:00:22.349Z,1.27
2024-04-18T07:02:50.696Z,1.10
2024-04-18T07:05:18.478Z,1.55
2024-04-18T07:07:45.466Z,1.55
2024-04-18T07:10:16.231Z,1.52
2024-04-18T07:12:43.282Z,1.63
2024-04-18T07:15:10.407Z,0.80
2024-04-18T07:17:37.369Z,1.30
2024-04-18T07:20:05.767Z,0.90
2024-04-18T07:22:32.441Z,0.77
2024-04-18T07:24:59.113Z,0.80
2024-04-18T07:27:25.835Z,0.70
2024-04-18T07:29:52.685Z,0.80
2024-04-18T07:32:19.454Z,0.95
2024-04-18T07:34:46.108Z,1.35
2024-04-18T07:37:12.780Z,0.65
2024-04-18T07:39:40.379Z,1.38
2024-04-18T07:42:08.056Z,1.77
2024-04-18T07:44:37.165Z,0.80
2024-04-18T07:47:03.787Z,0.85
2024-04-18T07:49:30.569Z,1.17
2024-04-18T07:51:57.717Z,1.02
2024-04-18T07:54:26.040Z,0.40
2024-04-18T07:56:53.380Z,0.50
2024-04-18T07:59:20.714Z,0.50
2024-04-18T08:01:49.321Z,0.60
2024-04-18T08:04:34.868Z,0.35
2024-04-18T08:07:09.073Z,0.68
2024-04-18T08:09:40.209Z,0.55
2024-04-18T08:12:24.009Z,0.65
2024-04-18T08:14:58.740Z,0.20
2024-04-18T08:17:31.482Z,0.60
2024-04-18T08:19:59.041Z,0.68
2024-04-18T08:22:26.186Z,0.50
2024-04-18T08:24:57.084Z,0.47
2024-04-18T08:27:23.807Z,0.98
2024-04-18T08:29:50.394Z,0.60
2024-04-18T08:32:17.018Z,0.80
2024-04-18T08:34:45.066Z,0.50
2024-04-18T08:37:12.236Z,0.70
2024-04-18T08:39:39.408Z,0.50
2024-04-18T08:42:08.120Z,0.73
2024-04-18T08:44:34.811Z,0.60
2024-04-18T08:47:07.074Z,0.73
2024-04-18T08:49:36.056Z,0.90
2024-04-18T08:52:05.854Z,0.40
2024-04-18T08:54:41.280Z,0.30
2024-04-18T08:57:10.679Z,0.30
2024-04-18T08:59:38.073Z,0.45
2024-04-18T09:02:05.973Z,0.25
2024-04-18T09:04:32.687Z,0.50
2024-04-18T09:07:02.264Z,0.30
2024-04-18T09:09:30.266Z,0.40
2024-04-18T09:11:58.472Z,0.47
2024-04-18T09:14:29.304Z,0.70
2024-04-18T09:16:56.644Z,0.63
2024-04-18T09:19:23.386Z,0.50
2024-04-18T09:21:51.764Z,0.90
2024-04-18T09:24:18.407Z,0.57
2024-04-18T09:26:47.308Z,0.52
2024-04-18T09:29:13.965Z,0.20
2024-04-18T09:31:43.676Z,0.50
2024-04-18T09:34:15.354Z,0.63
2024-04-18T09:36:43.824Z,0.80
2024-04-18T09:39:12.219Z,0.45
2024-04-18T09:41:41.317Z,0.50
2024-04-18T09:44:09.415Z,0.95
2024-04-18T09:46:37.071Z,0.45
2024-04-18T09:49:04.663Z,0.52
2024-04-18T09:51:32.509Z,0.65
2024-04-18T09:53:59.944Z,0.73
2024-04-18T09:56:28.766Z,0.50
2024-04-18T09:58:56.940Z,0.43
2024-04-18T10:01:23.879Z,0.22
2024-04-18T10:03:51.259Z,0.43
2024-04-18T10:06:22.218Z,0.52
2024-04-18T10:08:51.960Z,0.50
2024-04-18T10:11:23.665Z,0.73
2024-04-18T10:13:53.278Z,1.08
2024-04-18T10:16:21.220Z,0.52
2024-04-18T10:18:50.846Z,0.55
2024-04-18T10:21:43.112Z,0.52
2024-04-18T10:24:20.904Z,0.77
2024-04-18T10:26:58.996Z,0.52
2024-04-18T10:29:27.867Z,0.80
2024-04-18T10:32:01.443Z,0.40
2024-04-18T10:34:29.444Z,0.43
2024-04-18T10:37:06.987Z,0.75
2024-04-18T10:39:38.600Z,0.75
2024-04-18T10:42:12.047Z,0.43
2024-04-18T10:44:42.307Z,0.80
2024-04-18T10:47:09.686Z,0.73
2024-04-18T10:49:36.421Z,1.40
2024-04-18T10:52:04.921Z,0.63
2024-04-18T10:54:34.714Z,0.68
2024-04-18T10:57:03.342Z,0.50
2024-04-18T10:59:32.399Z,1.17
2024-04-18T11:02:09.450Z,0.50
2024-04-18T11:04:37.243Z,0.50
2024-04-18T11:07:04.221Z,0.57
2024-04-18T11:09:40.240Z,0.63
2024-04-18T11:14:35.541Z,0.85
2024-04-18T11:17:02.460Z,0.60
2024-04-18T11:19:33.055Z,0.70
2024-04-18T11:22:01.448Z,0.68
2024-04-18T11:24:32.106Z,1.08
2024-04-18T11:26:58.754Z,1.23
2024-04-18T11:29:30.224Z,1.10
2024-04-18T11:32:12.502Z,0.55
2024-04-18T11:34:43.999Z,0.88
2024-04-18T11:37:14.814Z,0.90
2024-04-18T11:39:42.993Z,1.05
2024-04-18T11:42:09.740Z,0.60
2024-04-18T11:44:36.425Z,1.08
2024-04-18T11:47:06.741Z,0.22
2024-04-18T11:49:33.371Z,0.65
2024-04-18T11:52:00.090Z,0.52
2024-04-18T11:54:27.164Z,0.73
2024-04-18T11:56:55.695Z,0.60
2024-04-18T11:59:22.567Z,0.98
2024-04-18T12:01:49.166Z,0.68
2024-04-18T12:04:15.877Z,0.82
2024-04-18T12:06:42.758Z,0.65
2024-04-18T12:09:09.744Z,1.20
2024-04-18T12:11:36.478Z,0.88
2024-04-18T12:14:04.076Z,0.40
2024-04-18T12:16:31.855Z,0.40
2024-04-18T12:18:58.625Z,0.50
2024-04-18T12:21:25.305Z,0.50
2024-04-18T12:23:52.268Z,0.55
2024-04-18T12:26:19.315Z,0.45
2024-04-18T12:28:47.101Z,0.68
2024-04-18T12:31:13.912Z,0.65
2024-04-18T12:33:40.534Z,0.60
2024-04-18T12:36:10.754Z,0.98
2024-04-18T12:38:37.408Z,0.68
2024-04-18T12:41:06.064Z,0.85
2024-04-18T12:43:33.550Z,0.50
2024-04-18T12:46:10.776Z,0.75
2024-04-18T12:48:44.275Z,0.60
2024-04-18T12:51:11.306Z,0.60
2024-04-18T12:53:39.051Z,1.00
2024-04-18T12:56:09.117Z,0.60
2024-04-18T12:58:37.574Z,0.52
2024-04-18T13:01:05.604Z,0.50
2024-04-18T13:03:32.815Z,0.60
2024-04-18T13:05:59.579Z,0.68
2024-04-18T13:08:29.845Z,0.55
2024-04-18T13:10:57.690Z,0.45
2024-04-18T13:13:25.032Z,0.40
2024-04-18T13:15:53.871Z,1.00
2024-04-18T13:18:21.259Z,0.50
2024-04-18T13:20:49.444Z,0.63
2024-04-18T13:23:18.680Z,0.75
2024-04-18T13:25:45.811Z,0.70
2024-04-18T13:28:13.270Z,0.50
2024-04-18T13:30:40.008Z,0.82
2024-04-18T13:33:06.862Z,0.40
2024-04-18T13:35:34.743Z,0.50
2024-04-18T13:38:01.431Z,0.73
2024-04-18T13:40:28.065Z,0.50
2024-04-18T13:42:54.717Z,0.70
2024-04-18T13:45:21.430Z,0.60
2024-04-18T13:47:48.284Z,0.70
2024-04-18T13:50:15.110Z,0.32
2024-04-18T13:52:41.760Z,1.25
2024-04-18T13:55:08.440Z,0.50
2024-04-18T13:57:35.174Z,0.90
2024-04-18T14:00:02.509Z,0.40
2024-04-18T14:02:29.220Z,0.45
2024-04-18T14:04:55.837Z,0.40
2024-04-18T14:07:22.449Z,0.20
2024-04-18T14:09:49.143Z,0.25
2024-04-18T14:12:15.855Z,0.55
2024-04-18T14:14:42.866Z,0.47
2024-04-18T14:17:27.912Z,0.60
2024-04-18T14:19:56.646Z,0.43
2024-04-18T14:22:24.563Z,0.38
2024-04-18T14:24:51.137Z,0.50
2024-04-18T14:27:18.823Z,0.40
2024-04-18T14:29:46.814Z,0.30
2024-04-18T14:32:14.789Z,0.50
2024-04-18T14:34:41.424Z,0.40
2024-04-18T14:37:10.091Z,0.60
2024-04-18T14:39:37.418Z,0.52
2024-04-18T14:42:04.522Z,0.40
2024-04-18T14:44:31.243Z,0.43
2024-04-18T14:46:57.897Z,0.40
2024-04-18T14:49:26.401Z,0.10
2024-04-18T14:51:52.971Z,0.32
2024-04-18T14:54:20.148Z,0.50
2024-04-18T14:56:46.761Z,0.30
2024-04-18T14:59:13.343Z,0.22
2024-04-18T15:01:39.987Z,0.43
2024-04-18T15:04:06.978Z,0.10
2024-04-18T15:06:34.292Z,0.50
2024-04-18T15:09:01.015Z,0.57
2024-04-18T15:11:28.544Z,0.80
2024-04-18T15:13:55.160Z,0.60
2024-04-18T15:16:21.841Z,0.60
2024-04-18T15:18:48.635Z,0.50
2024-04-18T15:21:16.644Z,0.63
2024-04-18T15:23:43.199Z,0.40
2024-04-18T15:26:09.832Z,0.65
2024-04-18T15:28:38.884Z,0.35
2024-04-18T15:31:06.022Z,0.20
2024-04-18T15:33:33.439Z,0.55
2024-04-18T15:36:00.107Z,0.30
2024-04-18T15:38:26.903Z,0.20
2024-04-18T15:40:55.331Z,0.35
2024-04-18T15:43:21.925Z,0.50
2024-04-18T15:45:48.552Z,0.40
2024-04-18T15:48:16.540Z,0.35
2024-04-18T15:50:43.516Z,0.40
2024-04-18T15:53:10.160Z,0.50
2024-04-18T15:55:36.764Z,0.43
2024-04-18T15:58:04.084Z,0.63
2024-04-18T16:00:30.769Z,1.13
2024-04-18T16:02:58.934Z,0.60
2024-04-18T16:05:26.468Z,0.52
2024-04-18T16:07:53.114Z,0.40
2024-04-18T16:10:19.666Z,0.50
2024-04-18T16:12:46.412Z,0.30
2024-04-18T16:15:13.218Z,0.22
2024-04-18T16:17:42.958Z,0.77
2024-04-18T16:20:10.027Z,0.50
2024-04-18T16:22:38.755Z,0.30
2024-04-18T16:25:05.771Z,0.32
2024-04-18T16:27:34.427Z,0.52
2024-04-18T16:30:02.808Z,0.45
2024-04-18T16:32:29.930Z,0.68
2024-04-18T16:34:56.575Z,0.55
2024-04-18T16:37:25.091Z,0.40
2024-04-18T16:39:51.940Z,0.30
2024-04-18T16:42:18.968Z,0.43
2024-04-18T16:44:47.035Z,0.20
2024-04-18T16:47:14.171Z,0.80
2024-04-18T16:49:41.622Z,0.70
2024-04-18T16:52:10.840Z,0.52
2024-04-18T16:54:37.912Z,0.70
2024-04-18T16:57:04.825Z,0.45
2024-04-18T16:59:31.468Z,0.52
2024-04-18T17:01:58.012Z,0.68
2024-04-18T17:04:24.702Z,0.98
2024-04-18T17:06:51.525Z,0.50
2024-04-18T17:09:18.581Z,0.60
2024-04-18T17:11:47.096Z,0.60
2024-04-18T17:14:15.799Z,0.30
2024-04-18T17:16:43.295Z,1.17
2024-04-18T17:19:09.904Z,0.28
2024-04-18T17:21:44.681Z,0.50
2024-04-18T17:24:12.703Z,0.52
2024-04-18T17:26:41.666Z,0.73
2024-04-18T17:29:08.296Z,0.60
2024-04-18T17:31:34.883Z,0.40
2024-04-18T17:34:01.817Z,0.90
2024-04-18T17:36:28.916Z,0.60
2024-04-18T17:38:55.650Z,0.55
2024-04-18T17:41:22.268Z,0.68
2024-04-18T17:43:48.922Z,0.60
2024-04-18T17:46:15.632Z,0.22
2024-04-18T17:48:43.995Z,0.50
2024-04-18T17:51:11.147Z,0.73
2024-04-18T17:53:37.905Z,0.50
2024-04-18T17:56:04.802Z,0.50
2024-04-18T17:58:31.550Z,0.40
2024-04-18T18:00:58.204Z,0.40
2024-04-18T18:03:25.327Z,0.40
2024-04-18T18:05:52.274Z,0.30
2024-04-18T18:08:19.193Z,0.40
2024-04-18T18:10:45.886Z,0.50
2024-04-18T18:13:14.037Z,0.70
2024-04-18T18:15:40.849Z,0.60
2024-04-18T18:18:10.684Z,0.60
2024-04-18T18:20:37.926Z,0.93
2024-04-18T18:23:04.793Z,0.57
2024-04-18T18:25:31.432Z,0.77
2024-04-18T18:27:58.118Z,0.77
2024-04-18T18:30:26.046Z,0.68
2024-04-18T18:32:52.924Z,0.60
2024-04-18T18:35:19.937Z,0.40
2024-04-18T18:37:47.598Z,0.40
2024-04-18T18:40:14.908Z,0.93
2024-04-18T18:42:41.837Z,0.70
2024-04-18T18:45:11.131Z,1.27
2024-04-18T18:47:39.070Z,0.50
2024-04-18T18:50:06.422Z,0.35
2024-04-18T18:52:33.038Z,0.43
2024-04-18T18:54:59.625Z,0.93
2024-04-18T18:57:26.241Z,0.57
2024-04-18T18:59:53.384Z,0.80
2024-04-18T19:02:21.568Z,0.75
2024-04-18T19:04:49.697Z,0.63
2024-04-18T19:07:16.289Z,0.70
2024-04-18T19:09:43.425Z,0.88
2024-04-18T19:12:10.436Z,1.05
2024-04-18T19:14:37.009Z,0.75
2024-04-18T19:17:04.061Z,0.63
2024-04-18T19:19:31.046Z,1.30
2024-04-18T19:21:57.710Z,1.00
2024-04-18T19:24:24.403Z,0.98
2024-04-18T19:26:51.034Z,0.60
2024-04-18T19:29:27.154Z,1.15
2024-04-18T19:32:02.762Z,0.75
2024-04-18T19:34:29.345Z,0.75
2024-04-18T19:36:56.082Z,0.80
2024-04-18T19:39:23.629Z,0.75
2024-04-18T19:41:50.520Z,0.90
2024-04-18T19:44:17.253Z,0.60
2024-04-18T19:46:45.146Z,0.50
2024-04-18T19:49:13.551Z,0.60
2024-04-18T19:51:40.516Z,0.60
2024-04-18T19:54:07.415Z,0.60
2024-04-18T19:56:34.055Z,0.98
2024-04-18T19:59:00.970Z,0.70
2024-04-18T20:01:29.716Z,0.80
2024-04-18T20:03:56.416Z,1.35
2024-04-18T20:06:26.107Z,0.77
2024-04-18T20:08:52.774Z,0.95
2024-04-18T20:11:19.325Z,0.90
2024-04-18T20:13:46.456Z,0.77
2024-04-18T20:16:13.403Z,0.68
2024-04-18T20:18:42.806Z,0.80
2024-04-18T20:21:09.612Z,0.88
2024-04-18T20:23:36.154Z,0.90
2024-04-18T20:26:02.713Z,1.00
2024-04-18T20:28:29.326Z,1.00
2024-04-18T20:30:55.967Z,0.90
2024-04-18T20:33:22.754Z,1.10
2024-04-18T20:35:52.330Z,0.63
2024-04-18T20:38:18.926Z,0.88
2024-04-18T20:40:45.534Z,1.02
2024-04-18T20:43:14.626Z,0.80
2024-04-18T20:45:41.268Z,1.63
2024-04-18T20:48:08.132Z,1.05
2024-04-18T20:50:38.862Z,1.05
2024-04-18T20:53:08.871Z,0.93
2024-04-18T20:55:35.467Z,1.10
2024-04-18T20:58:02.039Z,1.15
2024-04-18T21:00:32.040Z,1.17
2024-04-18T21:03:00.456Z,1.35
2024-04-18T21:05:28.288Z,1.30
2024-04-18T21:07:56.060Z,1.42
2024-04-18T21:10:22.776Z,1.95
2024-04-18T21:12:49.481Z,1.08
2024-04-18T21:15:16.729Z,1.17
2024-04-18T21:17:45.945Z,1.33
2024-04-18T21:20:14.224Z,1.17
2024-04-18T21:22:40.839Z,1.05
2024-04-18T21:25:08.589Z,1.23
2024-04-18T21:27:36.715Z,1.23
2024-04-18T21:30:04.762Z,1.65
2024-04-18T21:32:31.985Z,1.48
2024-04-18T21:35:00.601Z,1.98
2024-04-18T21:37:28.665Z,1.13
2024-04-18T21:39:55.415Z,0.60
2024-04-18T21:42:26.826Z,1.25
2024-04-18T21:44:53.530Z,1.13
2024-04-18T21:47:20.150Z,1.00
2024-04-18T21:49:47.108Z,1.42
2024-04-18T21:52:13.717Z,0.98
2024-04-18T21:54:40.843Z,1.15
2024-04-18T21:57:07.830Z,1.40
2024-04-18T21:59:39.156Z,1.67
2024-04-18T22:02:05.839Z,0.98
2024-04-18T22:04:32.480Z,1.13
2024-04-18T22:06:59.543Z,0.90
2024-04-18T22:09:31.169Z,1.10
2024-04-18T22:11:59.318Z,0.88
2024-04-18T22:14:25.958Z,0.60
2024-04-18T22:16:54.735Z,0.85
2024-04-18T22:19:21.522Z,1.35
2024-04-18T22:21:48.331Z,0.90
2024-04-18T22:24:14.965Z,0.90
2024-04-18T22:26:41.930Z,1.40
2024-04-18T22:29:10.943Z,1.05
2024-04-18T22:31:41.652Z,1.00
2024-04-18T22:36:39.615Z,0.90
2024-04-18T22:39:08.374Z,1.15
2024-04-18T22:41:35.043Z,0.68
2024-04-18T22:44:01.619Z,1.05
2024-04-18T22:46:29.267Z,1.10
2024-04-18T22:48:55.936Z,0.98
2024-04-18T22:51:22.653Z,0.70
2024-04-18T22:53:49.581Z,1.33
2024-04-18T22:56:16.500Z,1.27
2024-04-18T22:58:44.574Z,1.40
2024-04-18T23:01:14.727Z,0.73
2024-04-18T23:03:41.583Z,1.30
2024-04-18T23:06:08.333Z,0.90
2024-04-18T23:08:34.994Z,1.00
2024-04-18T23:11:01.682Z,1.10
2024-04-18T23:13:28.471Z,1.08
2024-04-18T23:15:59.521Z,1.40
2024-04-18T23:20:59.210Z,0.90
2024-04-18T23:23:29.006Z,0.93
2024-04-18T23:25:57.658Z,1.15
2024-04-18T23:28:24.232Z,1.00
2024-04-18T23:30:50.911Z,0.82
2024-04-18T23:33:18.021Z,1.05
2024-04-18T23:35:45.045Z,0.70
2024-04-18T23:38:13.171Z,1.63
2024-04-18T23:40:40.152Z,0.68
2024-04-18T23:43:09.644Z,1.02
2024-04-18T23:45:38.702Z,1.10
2024-04-18T23:48:07.840Z,0.82
2024-04-18T23:50:34.538Z,1.08
2024-04-18T23:53:01.124Z,0.80
2024-04-18T23:55:28.040Z,1.33
2024-04-18T23:57:55.388Z,1.52
